TimeEST,TemperatureF,Dew PointF,Humidity,Sea Level PressureIn,VisibilityMPH,Wind Direction,Wind SpeedMPH,Gust SpeedMPH,PrecipitationIn,Events,Conditions,WindDirDegrees,DateUTC
12:53 AM,78.1,68.0,71,30.04,10.0,Variable,3.5,-,N/A,,Clear,0,2013-11-21 05:53:00
1:53 AM,79.0,68.0,69,30.04,10.0,East,4.6,-,N/A,,Scattered Clouds,100,2013-11-21 06:53:00
2:53 AM,79.0,69.1,72,30.04,10.0,East,5.8,-,N/A,,Partly Cloudy,90,2013-11-21 07:53:00
3:53 AM,79.0,69.1,72,30.04,10.0,ESE,4.6,-,N/A,,Partly Cloudy,110,2013-11-21 08:53:00
4:53 AM,79.0,70.0,74,30.04,10.0,ESE,6.9,-,N/A,,Mostly Cloudy,110,2013-11-21 09:53:00
5:53 AM,78.1,70.0,76,30.06,10.0,East,5.8,-,N/A,,Partly Cloudy,90,2013-11-21 10:53:00
6:20 AM,79.0,70.0,74,30.07,10.0,East,5.8,-,N/A,,Mostly Cloudy,80,2013-11-21 11:20:00
6:30 AM,78.1,70.0,76,30.07,10.0,East,4.6,-,N/A,,Scattered Clouds,80,2013-11-21 11:30:00
6:53 AM,78.1,70.0,76,30.07,10.0,East,3.5,-,N/A,,Partly Cloudy,80,2013-11-21 11:53:00
7:53 AM,79.0,71.1,77,30.09,10.0,ENE,6.9,-,N/A,,Partly Cloudy,70,2013-11-21 12:53:00
8:53 AM,80.1,70.0,71,30.11,10.0,NE,9.2,-,N/A,,Clear,50,2013-11-21 13:53:00
9:53 AM,82.9,70.0,65,30.11,10.0,ESE,5.8,-,N/A,,Clear,110,2013-11-21 14:53:00
10:53 AM,84.0,69.1,61,30.11,10.0,East,5.8,-,N/A,,Clear,100,2013-11-21 15:53:00
11:53 AM,84.0,69.1,61,30.09,10.0,Variable,6.9,-,N/A,,Clear,0,2013-11-21 16:53:00
12:53 PM,84.9,69.1,59,30.08,10.0,Variable,6.9,-,N/A,,Clear,0,2013-11-21 17:53:00
1:53 PM,82.9,69.1,63,30.06,10.0,East,10.4,-,N/A,,Clear,90,2013-11-21 18:53:00
2:53 PM,82.0,69.1,65,30.06,10.0,East,10.4,-,N/A,,Clear,90,2013-11-21 19:53:00
3:53 PM,82.0,70.0,67,30.06,10.0,ENE,9.2,-,N/A,,Clear,70,2013-11-21 20:53:00
4:53 PM,80.1,69.1,69,30.06,10.0,East,9.2,-,N/A,,Clear,80,2013-11-21 21:53:00
5:53 PM,79.0,68.0,69,30.07,10.0,East,6.9,-,N/A,,Clear,80,2013-11-21 22:53:00
6:53 PM,80.1,66.9,64,30.09,10.0,ENE,6.9,-,N/A,,Clear,70,2013-11-21 23:53:00
7:53 PM,79.0,68.0,69,30.10,10.0,East,4.6,-,N/A,,Clear,80,2013-11-22 00:53:00
8:53 PM,79.0,70.0,74,30.11,10.0,ENE,5.8,-,N/A,,Clear,70,2013-11-22 01:53:00
9:53 PM,79.0,70.0,74,30.11,10.0,NE,9.2,-,N/A,,Partly Cloudy,50,2013-11-22 02:53:00
10:53 PM,79.0,71.1,77,30.11,10.0,NE,9.2,-,N/A,,Clear,50,2013-11-22 03:53:00
11:53 PM,78.1,72.0,81,30.09,10.0,NE,6.9,-,N/A,,Clear,50,2013-11-22 04:53:00